Davison, MI

10:13 PM EDT 2014 abuztua ren 30 an (GMT -0400)
Burton - wxbeacon.com | Change Station
CLOSE
Current Station
Personal Weather Stations
Location: Burton, MI
Elevation: 766 ft
Nearby Weather Stations

Elev 766 ft 43.03 °N, 83.59 °W | Updated 2 minutes ago

Goraki estalia
Goraki estalia
73.3 °F
Feels Like 72 °F
N
2.0
Haizea Aldagarria Haizea from HHM
Gusts 8.0 mph

Gaur
High -- | Low -- °F
--% Chance of Precip.
Yesterday
High -- | Low -- °F
Precip. -- in
6:56 AM 8:12 PM
Waxing Crescent, 26% visible
Presioa 29.88 in
Ikusgaitasuna 8.0 Miliak
Clouds Few 4000 ft
Goraki estalia 6500 ft
Estalia 8500 ft
Beroaren maila 72 °F
Ihintzaren maila 69 °F
Afoinua 87%
Rainfall 0.07 in
Snow Depth Not available.
UV 0 out of 12
Pollen 8.20 out of 12
Ozone Good
PM2.5 Good
Flu Activity Not available.
METAR KFNT 310153Z 22012G20KT 8SM -RA FEW040 BKN065 OVC085 24/20 A2989 RMK AO2 RAB48 SLP117 P0000 T02440200

More Conditions Fewer Conditions

Presioa 29.88 in
Ikusgaitasuna 8.0 Miliak
Clouds Few 4000 ft
Goraki estalia 6500 ft
Estalia 8500 ft
Beroaren maila 72 °F
Ihintzaren maila 69 °F
Afoinua 87%
Rainfall 0.07 in
Snow Depth Not available.
UV 0 out of 12
Pollen 8.20 out of 12
Ozone Good
PM2.5 Good
Flu Activity Not available.
METAR KFNT 310153Z 22012G20KT 8SM -RA FEW040 BKN065 OVC085 24/20 A2989 RMK AO2 RAB48 SLP117 P0000 T02440200

More Conditions Fewer Conditions

10-Day Weather Forecast

Almanac

Astronomy

Aug. 30, 2014 Rise Set
Actual Time 6:56 AM EDT 8:12 PM EDT
Civil Twilight 6:26 AM EDT 8:41 PM EDT
Nautical Twilight 5:51 AM EDT 9:16 PM EDT
Astronomical Twilight 5:14 AM EDT 9:53 PM EDT
Moon 11:51 AM EDT (8/30) 10:37 PM EDT (8/30)
Length Of Visible Light 14h 14m
Length of Day
13h 15m
Tomorrow will be 2m 48s shorter.
Waxing Crescent, 26% of the Moon is Illuminated
Gaur
Waxing Crescent
Sep 2
First Quarter
Sep 8
Full
Sep 15
Last Quarter
Sep 24
New

Today's Extremes

State Highs State Lows

Community

WunderPhotos

Upload Photos

1,748,736 photos uploaded!

Nearby

Air Quality

  Air Quality AQ Index Pollutant
Yesterday Good
OZONE
Yesterday Good
PM2.5
Current Good
PM2.5
Current Good
OZONE
Larunbata Moderate
PM2.5
Larunbata Good
OZONE
Igandea Good
OZONE
Igandea Good
PM2.5
Astelehena Good
OZONE
Astelehena Good
PM2.5
Asteartea Good
OZONE
Asteartea Good
PM2.5

Snow Depth

Station Depth Elevation
No new snow has been reported.

Earthquake Activity

City Distance Mag. Time & Date
No recent earthquake activity has been reported nearby.
Minimum magnitude displayed is 2.5.

Coastal Water Temperatures

Lekua Tenperatura
No Stations Reporting

Nearby Weather Stations